sensor_id;sensor_type;location;lat;lon;timestamp;pressure;altitude;pressure_sealevel;temperature;humidity
79617;BME280;69097;52.132;5.422;2023-12-20T00:01:55;101732.97;;;6.44;100.00
79617;BME280;69097;52.132;5.422;2023-12-20T00:04:22;101732.19;;;6.44;100.00
79617;BME280;69097;52.132;5.422;2023-12-20T00:06:49;101725.81;;;6.43;100.00
79617;BME280;69097;52.132;5.422;2023-12-20T00:09:15;101721.03;;;6.40;100.00
79617;BME280;69097;52.132;5.422;2023-12-20T00:11:42;101724.97;;;6.39;100.00
79617;BME280;69097;52.132;5.422;2023-12-20T00:14:09;101720.97;;;6.37;100.00
79617;BME280;69097;52.132;5.422;2023-12-20T00:16:35;101717.78;;;6.35;100.00
79617;BME280;69097;52.132;5.422;2023-12-20T00:19:02;101711.38;;;6.34;100.00
79617;BME280;69097;52.132;5.422;2023-12-20T00:21:29;101718.97;;;6.34;100.00
79617;BME280;69097;52.132;5.422;2023-12-20T00:23:55;101716.56;;;6.32;100.00
79617;BME280;69097;52.132;5.422;2023-12-20T00:26:23;101714.53;;;6.29;100.00
79617;BME280;69097;52.132;5.422;2023-12-20T00:28:50;101704.56;;;6.28;100.00
79617;BME280;69097;52.132;5.422;2023-12-20T00:31:16;101714.09;;;6.27;100.00
79617;BME280;69097;52.132;5.422;2023-12-20T00:33:43;101716.88;;;6.27;100.00
79617;BME280;69097;52.132;5.422;2023-12-20T00:36:10;101717.66;;;6.24;100.00
79617;BME280;69097;52.132;5.422;2023-12-20T00:38:37;101716.88;;;6.23;100.00
79617;BME280;69097;52.132;5.422;2023-12-20T00:41:03;101720.03;;;6.22;100.00
79617;BME280;69097;52.132;5.422;2023-12-20T00:43:30;101720.78;;;6.19;100.00
79617;BME280;69097;52.132;5.422;2023-12-20T00:45:59;101718.38;;;6.17;100.00
79617;BME280;69097;52.132;5.422;2023-12-20T00:48:26;101718.38;;;6.17;100.00
79617;BME280;69097;52.132;5.422;2023-12-20T00:50:53;101714.78;;;6.17;100.00
79617;BME280;69097;52.132;5.422;2023-12-20T00:53:20;101714.41;;;6.15;100.00
79617;BME280;69097;52.132;5.422;2023-12-20T00:55:46;101704.00;;;6.12;100.00
79617;BME280;69097;52.132;5.422;2023-12-20T00:58:13;101716.28;;;6.07;100.00
79617;BME280;69097;52.132;5.422;2023-12-20T01:00:41;101716.28;;;6.07;100.00
79617;BME280;69097;52.132;5.422;2023-12-20T01:03:10;101715.47;;;6.07;100.00
79617;BME280;69097;52.132;5.422;2023-12-20T01:05:36;101717.88;;;6.05;100.00
79617;BME280;69097;52.132;5.422;2023-12-20T01:08:03;101715.81;;;6.02;100.00
79617;BME280;69097;52.132;5.422;2023-12-20T01:10:29;101705.47;;;5.99;100.00
79617;BME280;69097;52.132;5.422;2023-12-20T01:12:56;101695.94;;;6.00;100.00
79617;BME280;69097;52.132;5.422;2023-12-20T01:15:22;101694.31;;;5.99;100.00
79617;BME280;69097;52.132;5.422;2023-12-20T01:17:49;101691.09;;;5.97;100.00
79617;BME280;69097;52.132;5.422;2023-12-20T01:20:16;101691.91;;;5.97;100.00
79617;BME280;69097;52.132;5.422;2023-12-20T01:22:43;101695.09;;;5.96;100.00
79617;BME280;69097;52.132;5.422;2023-12-20T01:25:12;101705.41;;;5.95;100.00
79617;BME280;69097;52.132;5.422;2023-12-20T01:27:39;101719.72;;;5.94;100.00
79617;BME280;69097;52.132;5.422;2023-12-20T01:30:06;101722.06;;;5.92;100.00
79617;BME280;69097;52.132;5.422;2023-12-20T01:32:33;101722.06;;;5.92;100.00
79617;BME280;69097;52.132;5.422;2023-12-20T01:34:59;101722.06;;;5.92;100.00
79617;BME280;69097;52.132;5.422;2023-12-20T01:37:28;101722.06;;;5.92;100.00
79617;BME280;69097;52.132;5.422;2023-12-20T01:39:55;101723.28;;;5.91;100.00
79617;BME280;69097;52.132;5.422;2023-12-20T01:42:22;101722.88;;;5.92;100.00
79617;BME280;69097;52.132;5.422;2023-12-20T01:44:49;101718.50;;;5.91;100.00
79617;BME280;69097;52.132;5.422;2023-12-20T01:47:16;101706.56;;;5.91;100.00
79617;BME280;69097;52.132;5.422;2023-12-20T01:49:43;101699.41;;;5.90;100.00
79617;BME280;69097;52.132;5.422;2023-12-20T01:52:10;101703.78;;;5.91;100.00
79617;BME280;69097;52.132;5.422;2023-12-20T01:54:38;101703.78;;;5.91;100.00
79617;BME280;69097;52.132;5.422;2023-12-20T01:57:06;101715.72;;;5.91;100.00
79617;BME280;69097;52.132;5.422;2023-12-20T01:59:34;101707.78;;;5.93;100.00
79617;BME280;69097;52.132;5.422;2023-12-20T02:02:02;101705.38;;;5.92;100.00
79617;BME280;69097;52.132;5.422;2023-12-20T02:04:30;101704.22;;;5.93;100.00
79617;BME280;69097;52.132;5.422;2023-12-20T02:06:57;101704.63;;;5.95;100.00
79617;BME280;69097;52.132;5.422;2023-12-20T02:09:26;101707.78;;;5.93;100.00
79617;BME280;69097;52.132;5.422;2023-12-20T02:11:53;101705.41;;;5.95;100.00
79617;BME280;69097;52.132;5.422;2023-12-20T02:14:20;101703.81;;;5.94;100.00
79617;BME280;69097;52.132;5.422;2023-12-20T02:16:47;101698.25;;;5.94;100.00
79617;BME280;69097;52.132;5.422;2023-12-20T02:19:15;101699.47;;;5.97;100.00
79617;BME280;69097;52.132;5.422;2023-12-20T02:21:42;101697.50;;;5.97;100.00
79617;BME280;69097;52.132;5.422;2023-12-20T02:24:08;101685.59;;;6.00;100.00
79617;BME280;69097;52.132;5.422;2023-12-20T02:26:35;101702.72;;;6.02;100.00
79617;BME280;69097;52.132;5.422;2023-12-20T02:29:02;101696.72;;;6.00;100.00
79617;BME280;69097;52.132;5.422;2023-12-20T02:31:28;101696.34;;;6.02;100.00
79617;BME280;69097;52.132;5.422;2023-12-20T02:33:55;101689.22;;;6.04;100.00
79617;BME280;69097;52.132;5.422;2023-12-20T02:36:21;101695.16;;;6.03;100.00
79617;BME280;69097;52.132;5.422;2023-12-20T02:38:48;101699.53;;;6.04;100.00
79617;BME280;69097;52.132;5.422;2023-12-20T02:41:14;101690.81;;;6.05;100.00
79617;BME280;69097;52.132;5.422;2023-12-20T02:43:43;101691.22;;;6.07;100.00
79617;BME280;69097;52.132;5.422;2023-12-20T02:46:10;101678.13;;;6.08;100.00
79617;BME280;69097;52.132;5.422;2023-12-20T02:48:38;101679.31;;;6.10;100.00
79617;BME280;69097;52.132;5.422;2023-12-20T02:51:05;101675.75;;;6.10;100.00
79617;BME280;69097;52.132;5.422;2023-12-20T02:53:31;101674.53;;;6.07;100.00
79617;BME280;69097;52.132;5.422;2023-12-20T02:55:58;101669.34;;;6.06;100.00
79617;BME280;69097;52.132;5.422;2023-12-20T02:58:24;101660.59;;;6.07;100.00
79617;BME280;69097;52.132;5.422;2023-12-20T03:00:51;101665.78;;;6.09;100.00
79617;BME280;69097;52.132;5.422;2023-12-20T03:03:18;101662.59;;;6.10;100.00
79617;BME280;69097;52.132;5.422;2023-12-20T03:05:45;101667.41;;;6.10;100.00
79617;BME280;69097;52.132;5.422;2023-12-20T03:08:12;101662.22;;;6.08;100.00
79617;BME280;69097;52.132;5.422;2023-12-20T03:10:39;101661.44;;;6.11;100.00
79617;BME280;69097;52.132;5.422;2023-12-20T03:13:06;101669.00;;;6.11;100.00
79617;BME280;69097;52.132;5.422;2023-12-20T03:15:32;101667.00;;;6.11;100.00
79617;BME280;69097;52.132;5.422;2023-12-20T03:17:59;101661.44;;;6.11;100.00
79617;BME280;69097;52.132;5.422;2023-12-20T03:20:25;101662.22;;;6.12;100.00
79617;BME280;69097;52.132;5.422;2023-12-20T03:22:53;101658.66;;;6.11;100.00
79617;BME280;69097;52.132;5.422;2023-12-20T03:25:20;101647.91;;;6.10;100.00
79617;BME280;69097;52.132;5.422;2023-12-20T03:27:46;101640.72;;;6.09;100.00
79617;BME280;69097;52.132;5.422;2023-12-20T03:30:13;101638.75;;;6.09;100.00
79617;BME280;69097;52.132;5.422;2023-12-20T03:32:40;101642.72;;;6.12;100.00
79617;BME280;69097;52.132;5.422;2023-12-20T03:35:07;101642.72;;;6.12;100.00
79617;BME280;69097;52.132;5.422;2023-12-20T03:37:33;101649.06;;;6.09;100.00
79617;BME280;69097;52.132;5.422;2023-12-20T03:40:00;101643.88;;;6.07;100.00
79617;BME280;69097;52.132;5.422;2023-12-20T03:42:27;101651.06;;;6.08;100.00
79617;BME280;69097;52.132;5.422;2023-12-20T03:44:54;101643.91;;;6.11;100.00
79617;BME280;69097;52.132;5.422;2023-12-20T03:47:20;101639.94;;;6.12;100.00
79617;BME280;69097;52.132;5.422;2023-12-20T03:49:47;101651.50;;;6.14;100.00
79617;BME280;69097;52.132;5.422;2023-12-20T03:52:13;101651.50;;;6.14;100.00
79617;BME280;69097;52.132;5.422;2023-12-20T03:54:40;101654.28;;;6.14;100.00
79617;BME280;69097;52.132;5.422;2023-12-20T03:57:08;101648.34;;;6.15;100.00
79617;BME280;69097;52.132;5.422;2023-12-20T03:59:36;101644.38;;;6.16;100.00
79617;BME280;69097;52.132;5.422;2023-12-20T04:02:03;101641.97;;;6.15;100.00
79617;BME280;69097;52.132;5.422;2023-12-20T04:04:43;101641.16;;;6.14;100.00
79617;BME280;69097;52.132;5.422;2023-12-20T04:07:10;101646.75;;;6.14;100.00
79617;BME280;69097;52.132;5.422;2023-12-20T04:09:36;101650.72;;;6.13;100.00
79617;BME280;69097;52.132;5.422;2023-12-20T04:12:04;101643.16;;;6.14;100.00
79617;BME280;69097;52.132;5.422;2023-12-20T04:14:32;101644.78;;;6.15;100.00
79617;BME280;69097;52.132;5.422;2023-12-20T04:16:58;101638.81;;;6.16;100.00
79617;BME280;69097;52.132;5.422;2023-12-20T04:19:25;101638.81;;;6.16;100.00
79617;BME280;69097;52.132;5.422;2023-12-20T04:21:51;101634.84;;;6.17;100.00
79617;BME280;69097;52.132;5.422;2023-12-20T04:24:18;101626.09;;;6.19;100.00
79617;BME280;69097;52.132;5.422;2023-12-20T04:26:45;101636.06;;;6.20;100.00
79617;BME280;69097;52.132;5.422;2023-12-20T04:29:11;101632.88;;;6.21;100.00
79617;BME280;69097;52.132;5.422;2023-12-20T04:31:38;101638.06;;;6.23;100.00
79617;BME280;69097;52.132;5.422;2023-12-20T04:34:04;101644.44;;;6.23;100.00
79617;BME280;69097;52.132;5.422;2023-12-20T04:36:31;101642.88;;;6.26;100.00
79617;BME280;69097;52.132;5.422;2023-12-20T04:38:57;101639.28;;;6.25;100.00
79617;BME280;69097;52.132;5.422;2023-12-20T04:41:26;101649.28;;;6.30;100.00
79617;BME280;69097;52.132;5.422;2023-12-20T04:43:54;101635.78;;;6.32;100.00
79617;BME280;69097;52.132;5.422;2023-12-20T04:46:20;101626.22;;;6.33;100.00
79617;BME280;69097;52.132;5.422;2023-12-20T04:48:47;101636.56;;;6.33;100.00
79617;BME280;69097;52.132;5.422;2023-12-20T04:51:13;101635.78;;;6.32;100.00
79617;BME280;69097;52.132;5.422;2023-12-20T04:53:40;101637.38;;;6.33;100.00
79617;BME280;69097;52.132;5.422;2023-12-20T04:56:07;101629.44;;;6.35;100.00
79617;BME280;69097;52.132;5.422;2023-12-20T04:58:33;101627.06;;;6.37;100.00
79617;BME280;69097;52.132;5.422;2023-12-20T05:01:00;101621.09;;;6.39;100.00
79617;BME280;69097;52.132;5.422;2023-12-20T05:03:27;101615.91;;;6.41;100.00
79617;BME280;69097;52.132;5.422;2023-12-20T05:05:54;101612.34;;;6.40;100.00
79617;BME280;69097;52.132;5.422;2023-12-20T05:08:28;101616.34;;;6.43;100.00
79617;BME280;69097;52.132;5.422;2023-12-20T05:10:55;101633.09;;;6.46;100.00
79617;BME280;69097;52.132;5.422;2023-12-20T05:13:22;101631.09;;;6.47;100.00
79617;BME280;69097;52.132;5.422;2023-12-20T05:15:59;101627.94;;;6.48;100.00
79617;BME280;69097;52.132;5.422;2023-12-20T05:18:26;101621.53;;;6.48;100.00
79617;BME280;69097;52.132;5.422;2023-12-20T05:20:52;101624.75;;;6.50;100.00
79617;BME280;69097;52.132;5.422;2023-12-20T05:23:24;101617.97;;;6.51;100.00
79617;BME280;69097;52.132;5.422;2023-12-20T05:25:51;101628.78;;;6.52;100.00
79617;BME280;69097;52.132;5.422;2023-12-20T05:28:17;101631.94;;;6.54;100.00
79617;BME280;69097;52.132;5.422;2023-12-20T05:30:44;101631.94;;;6.54;100.00
79617;BME280;69097;52.132;5.422;2023-12-20T05:33:19;101630.34;;;6.53;100.00
79617;BME280;69097;52.132;5.422;2023-12-20T05:35:46;101625.97;;;6.52;100.00
79617;BME280;69097;52.132;5.422;2023-12-20T05:38:12;101631.94;;;6.54;100.00
79617;BME280;69097;52.132;5.422;2023-12-20T05:40:39;101631.94;;;6.54;100.00
79617;BME280;69097;52.132;5.422;2023-12-20T05:43:05;101627.19;;;6.55;100.00
79617;BME280;69097;52.132;5.422;2023-12-20T05:45:32;101623.59;;;6.54;100.00
79617;BME280;69097;52.132;5.422;2023-12-20T05:47:59;101621.22;;;6.56;100.00
79617;BME280;69097;52.132;5.422;2023-12-20T05:50:25;101625.63;;;6.57;100.00
79617;BME280;69097;52.132;5.422;2023-12-20T05:52:52;101630.78;;;6.55;100.00
79617;BME280;69097;52.132;5.422;2023-12-20T05:55:18;101625.19;;;6.55;100.00
79617;BME280;69097;52.132;5.422;2023-12-20T05:57:45;101624.41;;;6.55;100.00
79617;BME280;69097;52.132;5.422;2023-12-20T06:00:12;101630.38;;;6.57;100.00
79617;BME280;69097;52.132;5.422;2023-12-20T06:02:39;101620.03;;;6.57;100.00
79617;BME280;69097;52.132;5.422;2023-12-20T06:05:06;101620.03;;;6.57;100.00
79617;BME280;69097;52.132;5.422;2023-12-20T06:07:33;101623.22;;;6.59;100.00
79617;BME280;69097;52.132;5.422;2023-12-20T06:10:00;101627.22;;;6.58;100.00
79617;BME280;69097;52.132;5.422;2023-12-20T06:12:26;101628.81;;;6.59;100.00
79617;BME280;69097;52.132;5.422;2023-12-20T06:14:54;101624.41;;;6.58;100.00
79617;BME280;69097;52.132;5.422;2023-12-20T06:17:21;101613.69;;;6.60;100.00
79617;BME280;69097;52.132;5.422;2023-12-20T06:19:48;101615.28;;;6.61;100.00
79617;BME280;69097;52.132;5.422;2023-12-20T06:22:15;101611.31;;;6.62;100.00
79617;BME280;69097;52.132;5.422;2023-12-20T06:24:42;101616.50;;;6.64;100.00
79617;BME280;69097;52.132;5.422;2023-12-20T06:27:09;101611.31;;;6.62;100.00
79617;BME280;69097;52.132;5.422;2023-12-20T06:29:38;101607.75;;;6.65;100.00
79617;BME280;69097;52.132;5.422;2023-12-20T06:32:04;101612.13;;;6.66;100.00
79617;BME280;69097;52.132;5.422;2023-12-20T06:34:31;101620.09;;;6.68;100.00
79617;BME280;69097;52.132;5.422;2023-12-20T06:36:58;101601.41;;;6.68;100.00
79617;BME280;69097;52.132;5.422;2023-12-20T06:39:24;101615.34;;;6.68;100.00
79617;BME280;69097;52.132;5.422;2023-12-20T06:41:51;101617.72;;;6.70;100.00
79617;BME280;69097;52.132;5.422;2023-12-20T06:44:18;101617.34;;;6.71;99.96
79617;BME280;69097;52.132;5.422;2023-12-20T06:46:44;101614.97;;;6.73;99.96
79617;BME280;69097;52.132;5.422;2023-12-20T06:49:12;101606.59;;;6.73;100.00
79617;BME280;69097;52.132;5.422;2023-12-20T06:51:39;101601.03;;;6.73;99.87
79617;BME280;69097;52.132;5.422;2023-12-20T06:54:05;101603.81;;;6.73;99.81
79617;BME280;69097;52.132;5.422;2023-12-20T06:56:32;101597.03;;;6.74;99.81
79617;BME280;69097;52.132;5.422;2023-12-20T06:59:01;101597.03;;;6.74;100.00
79617;BME280;69097;52.132;5.422;2023-12-20T07:01:27;101607.84;;;6.76;99.86
79617;BME280;69097;52.132;5.422;2023-12-20T07:03:54;101595.47;;;6.77;99.64
79617;BME280;69097;52.132;5.422;2023-12-20T07:06:21;101598.25;;;6.77;99.56
79617;BME280;69097;52.132;5.422;2023-12-20T07:08:52;101604.25;;;6.79;99.61
79617;BME280;69097;52.132;5.422;2023-12-20T07:11:20;101604.25;;;6.79;99.77
79617;BME280;69097;52.132;5.422;2023-12-20T07:13:59;101593.91;;;6.79;99.61
79617;BME280;69097;52.132;5.422;2023-12-20T07:16:34;101607.47;;;6.81;99.65
79617;BME280;69097;52.132;5.422;2023-12-20T07:19:01;101597.09;;;6.81;99.78
79617;BME280;69097;52.132;5.422;2023-12-20T07:21:27;101597.09;;;6.81;99.28
79617;BME280;69097;52.132;5.422;2023-12-20T07:23:54;101588.34;;;6.83;99.44
79617;BME280;69097;52.132;5.422;2023-12-20T07:26:21;101591.94;;;6.83;99.27
79617;BME280;69097;52.132;5.422;2023-12-20T07:28:47;101591.53;;;6.85;99.02
79617;BME280;69097;52.132;5.422;2023-12-20T07:31:15;101583.97;;;6.85;98.71
79617;BME280;69097;52.132;5.422;2023-12-20T07:33:42;101588.78;;;6.88;99.05
79617;BME280;69097;52.132;5.422;2023-12-20T07:36:09;101580.00;;;6.90;99.50
79617;BME280;69097;52.132;5.422;2023-12-20T07:38:36;101570.88;;;6.89;99.35
79617;BME280;69097;52.132;5.422;2023-12-20T07:41:02;101568.47;;;6.91;99.51
79617;BME280;69097;52.132;5.422;2023-12-20T07:43:29;101579.63;;;6.91;98.98
79617;BME280;69097;52.132;5.422;2023-12-20T07:46:06;101578.44;;;6.92;98.85
79617;BME280;69097;52.132;5.422;2023-12-20T07:48:36;101592.38;;;6.92;99.17
79617;BME280;69097;52.132;5.422;2023-12-20T07:51:04;101588.41;;;6.93;98.79
79617;BME280;69097;52.132;5.422;2023-12-20T07:53:32;101608.34;;;6.95;98.80
79617;BME280;69097;52.132;5.422;2023-12-20T07:55:59;101593.19;;;6.96;98.85
79617;BME280;69097;52.132;5.422;2023-12-20T07:58:26;101607.56;;;6.98;99.08
79617;BME280;69097;52.132;5.422;2023-12-20T08:01:11;101609.16;;;6.99;98.71
79617;BME280;69097;52.132;5.422;2023-12-20T08:03:38;101607.97;;;7.00;99.23
79617;BME280;69097;52.132;5.422;2023-12-20T08:06:05;101607.16;;;7.00;98.99
79617;BME280;69097;52.132;5.422;2023-12-20T08:08:34;101619.13;;;7.00;98.82
79617;BME280;69097;52.132;5.422;2023-12-20T08:11:01;101625.13;;;7.02;98.75
79617;BME280;69097;52.132;5.422;2023-12-20T08:13:28;101626.69;;;7.03;98.85
79617;BME280;69097;52.132;5.422;2023-12-20T08:15:55;101625.13;;;7.02;99.02
79617;BME280;69097;52.132;5.422;2023-12-20T08:18:22;101627.50;;;7.04;98.86
79617;BME280;69097;52.132;5.422;2023-12-20T08:20:50;101614.38;;;7.04;98.38
79617;BME280;69097;52.132;5.422;2023-12-20T08:23:22;101617.16;;;7.04;98.41
79617;BME280;69097;52.132;5.422;2023-12-20T08:25:52;101613.16;;;7.05;98.40
79617;BME280;69097;52.132;5.422;2023-12-20T08:28:19;101607.19;;;7.07;98.14
79617;BME280;69097;52.132;5.422;2023-12-20T08:30:45;101603.63;;;7.10;98.37
79617;BME280;69097;52.132;5.422;2023-12-20T08:33:12;101612.81;;;7.10;97.92
79617;BME280;69097;52.132;5.422;2023-12-20T08:35:39;101593.28;;;7.10;98.57
79617;BME280;69097;52.132;5.422;2023-12-20T08:38:06;101603.22;;;7.11;98.46
79617;BME280;69097;52.132;5.422;2023-12-20T08:40:33;101597.28;;;7.13;98.56
79617;BME280;69097;52.132;5.422;2023-12-20T08:43:00;101593.28;;;7.14;98.76
79617;BME280;69097;52.132;5.422;2023-12-20T08:45:43;101602.88;;;7.13;98.42
79617;BME280;69097;52.132;5.422;2023-12-20T08:48:19;101604.06;;;7.15;98.43
79617;BME280;69097;52.132;5.422;2023-12-20T08:50:46;101609.25;;;7.17;98.43
79617;BME280;69097;52.132;5.422;2023-12-20T08:53:15;101598.47;;;7.15;98.70
79617;BME280;69097;52.132;5.422;2023-12-20T08:55:43;101591.69;;;7.16;98.52
79617;BME280;69097;52.132;5.422;2023-12-20T08:58:09;101605.63;;;7.16;98.51
79617;BME280;69097;52.132;5.422;2023-12-20T09:00:36;101600.88;;;7.17;98.95
79617;BME280;69097;52.132;5.422;2023-12-20T09:03:03;101604.88;;;7.16;99.34
79617;BME280;69097;52.132;5.422;2023-12-20T09:05:30;101603.66;;;7.17;99.44
79617;BME280;69097;52.132;5.422;2023-12-20T09:07:57;101598.88;;;7.17;99.55
79617;BME280;69097;52.132;5.422;2023-12-20T09:10:24;101595.69;;;7.15;99.73
79617;BME280;69097;52.132;5.422;2023-12-20T09:12:53;101601.25;;;7.15;100.00
79617;BME280;69097;52.132;5.422;2023-12-20T09:15:26;101598.88;;;7.14;100.00
79617;BME280;69097;52.132;5.422;2023-12-20T09:17:53;101598.06;;;7.13;100.00
79617;BME280;69097;52.132;5.422;2023-12-20T09:20:20;101607.63;;;7.12;100.00
79617;BME280;69097;52.132;5.422;2023-12-20T09:22:47;101598.88;;;7.14;100.00
79617;BME280;69097;52.132;5.422;2023-12-20T09:25:14;101596.09;;;7.14;100.00
79617;BME280;69097;52.132;5.422;2023-12-20T09:27:42;101598.06;;;7.13;100.00
79617;BME280;69097;52.132;5.422;2023-12-20T09:30:09;101586.91;;;7.13;100.00
79617;BME280;69097;52.132;5.422;2023-12-20T09:32:36;101588.53;;;7.14;100.00
79617;BME280;69097;52.132;5.422;2023-12-20T09:35:03;101587.31;;;7.15;100.00
79617;BME280;69097;52.132;5.422;2023-12-20T09:37:32;101594.91;;;7.18;100.00
79617;BME280;69097;52.132;5.422;2023-12-20T09:39:58;101592.94;;;7.22;100.00
79617;BME280;69097;52.132;5.422;2023-12-20T09:42:38;101598.13;;;7.24;100.00
79617;BME280;69097;52.132;5.422;2023-12-20T09:45:08;101608.88;;;7.25;100.00
79617;BME280;69097;52.132;5.422;2023-12-20T09:47:43;101592.56;;;7.27;100.00
79617;BME280;69097;52.132;5.422;2023-12-20T09:50:10;101604.53;;;7.31;100.00
79617;BME280;69097;52.132;5.422;2023-12-20T09:52:38;101606.94;;;7.33;100.00
79617;BME280;69097;52.132;5.422;2023-12-20T09:55:06;101607.31;;;7.35;100.00
79617;BME280;69097;52.132;5.422;2023-12-20T09:57:33;101591.78;;;7.37;100.00
79617;BME280;69097;52.132;5.422;2023-12-20T10:00:00;101591.00;;;7.40;100.00
79617;BME280;69097;52.132;5.422;2023-12-20T10:02:27;101597.41;;;7.44;100.00
79617;BME280;69097;52.132;5.422;2023-12-20T10:04:54;101600.59;;;7.46;100.00
79617;BME280;69097;52.132;5.422;2023-12-20T10:07:21;101614.94;;;7.48;100.00
79617;BME280;69097;52.132;5.422;2023-12-20T10:09:48;101611.38;;;7.52;100.00
79617;BME280;69097;52.132;5.422;2023-12-20T10:12:15;101606.19;;;7.53;100.00
79617;BME280;69097;52.132;5.422;2023-12-20T10:14:42;101617.75;;;7.56;99.99
79617;BME280;69097;52.132;5.422;2023-12-20T10:17:08;101620.56;;;7.59;99.81
79617;BME280;69097;52.132;5.422;2023-12-20T10:19:35;101624.16;;;7.60;99.36
79617;BME280;69097;52.132;5.422;2023-12-20T10:22:04;101612.59;;;7.61;99.97
79617;BME280;69097;52.132;5.422;2023-12-20T10:24:30;101615.81;;;7.63;99.76
79617;BME280;69097;52.132;5.422;2023-12-20T10:27:04;101621.41;;;7.63;99.12
79617;BME280;69097;52.132;5.422;2023-12-20T10:29:38;101607.03;;;7.65;99.57
79617;BME280;69097;52.132;5.422;2023-12-20T10:32:26;101601.88;;;7.67;99.04
79617;BME280;69097;52.132;5.422;2023-12-20T10:34:54;101591.06;;;7.69;99.36
79617;BME280;69097;52.132;5.422;2023-12-20T10:37:23;101584.72;;;7.72;98.98
79617;BME280;69097;52.132;5.422;2023-12-20T10:39:52;101581.13;;;7.75;99.16
79617;BME280;69097;52.132;5.422;2023-12-20T10:42:26;101584.72;;;7.75;98.61
79617;BME280;69097;52.132;5.422;2023-12-20T10:44:53;101581.13;;;7.75;98.69
79617;BME280;69097;52.132;5.422;2023-12-20T10:47:20;101575.94;;;7.77;98.52
79617;BME280;69097;52.132;5.422;2023-12-20T10:49:47;101588.72;;;7.81;98.60
79617;BME280;69097;52.132;5.422;2023-12-20T10:52:15;101583.94;;;7.85;98.56
79617;BME280;69097;52.132;5.422;2023-12-20T10:55:02;101572.78;;;7.85;97.74
79617;BME280;69097;52.132;5.422;2023-12-20T10:57:29;101578.38;;;7.85;97.98
79617;BME280;69097;52.132;5.422;2023-12-20T11:00:00;101567.97;;;7.86;98.20
79617;BME280;69097;52.132;5.422;2023-12-20T11:02:38;101579.53;;;7.88;97.80
79617;BME280;69097;52.132;5.422;2023-12-20T11:07:58;101566.41;;;7.95;97.20
79617;BME280;69097;52.132;5.422;2023-12-20T11:10:30;101570.38;;;7.98;97.37
79617;BME280;69097;52.132;5.422;2023-12-20T11:13:10;101562.00;;;8.05;96.61
79617;BME280;69097;52.132;5.422;2023-12-20T11:15:39;101558.41;;;8.11;97.26
79617;BME280;69097;52.132;5.422;2023-12-20T11:18:06;101562.41;;;8.17;97.61
79617;BME280;69097;52.132;5.422;2023-12-20T11:20:40;101562.44;;;8.24;96.47
79617;BME280;69097;52.132;5.422;2023-12-20T11:23:08;101554.44;;;8.30;96.09
79617;BME280;69097;52.132;5.422;2023-12-20T11:25:55;101543.66;;;8.28;96.01
79617;BME280;69097;52.132;5.422;2023-12-20T11:28:23;101536.50;;;8.24;96.22
79617;BME280;69097;52.132;5.422;2023-12-20T11:30:53;101540.84;;;8.21;96.52
79617;BME280;69097;52.132;5.422;2023-12-20T11:33:24;101544.06;;;8.23;96.27
79617;BME280;69097;52.132;5.422;2023-12-20T11:35:56;101542.09;;;8.31;96.46
79617;BME280;69097;52.132;5.422;2023-12-20T11:38:23;101538.47;;;8.41;96.22
79617;BME280;69097;52.132;5.422;2023-12-20T11:40:54;101533.66;;;8.48;96.27
79617;BME280;69097;52.132;5.422;2023-12-20T11:43:39;101536.44;;;8.52;95.71
79617;BME280;69097;52.132;5.422;2023-12-20T11:46:07;101529.28;;;8.51;95.13
79617;BME280;69097;52.132;5.422;2023-12-20T11:48:38;101526.47;;;8.51;95.82
79617;BME280;69097;52.132;5.422;2023-12-20T11:51:12;101529.66;;;8.53;95.18
79617;BME280;69097;52.132;5.422;2023-12-20T11:53:39;101526.84;;;8.53;94.79
79617;BME280;69097;52.132;5.422;2023-12-20T11:56:08;101510.06;;;8.53;95.15
79617;BME280;69097;52.132;5.422;2023-12-20T11:58:36;101512.88;;;8.53;94.78
79617;BME280;69097;52.132;5.422;2023-12-20T12:01:02;101509.69;;;8.54;94.95
79617;BME280;69097;52.132;5.422;2023-12-20T12:03:31;101502.91;;;8.55;94.53
79617;BME280;69097;52.132;5.422;2023-12-20T12:05:57;101517.69;;;8.56;93.88
79617;BME280;69097;52.132;5.422;2023-12-20T12:08:24;101511.28;;;8.55;93.71
79617;BME280;69097;52.132;5.422;2023-12-20T12:10:51;101511.69;;;8.50;93.62
79617;BME280;69097;52.132;5.422;2023-12-20T12:13:18;101516.47;;;8.50;94.31
79617;BME280;69097;52.132;5.422;2023-12-20T12:15:45;101529.28;;;8.51;94.17
79617;BME280;69097;52.132;5.422;2023-12-20T12:18:15;101534.47;;;8.49;93.81
79617;BME280;69097;52.132;5.422;2023-12-20T12:20:42;101526.47;;;8.47;94.15
79617;BME280;69097;52.132;5.422;2023-12-20T12:23:12;101527.25;;;8.48;94.14
79617;BME280;69097;52.132;5.422;2023-12-20T12:25:39;101523.28;;;8.49;94.29
79617;BME280;69097;52.132;5.422;2023-12-20T12:28:09;101524.47;;;8.51;94.60
79617;BME280;69097;52.132;5.422;2023-12-20T12:30:36;101510.47;;;8.55;94.04
79617;BME280;69097;52.132;5.422;2023-12-20T12:33:11;101490.50;;;8.56;94.09
79617;BME280;69097;52.132;5.422;2023-12-20T12:35:40;101496.91;;;8.57;94.42
79617;BME280;69097;52.132;5.422;2023-12-20T12:38:07;101489.72;;;8.56;93.80
79617;BME280;69097;52.132;5.422;2023-12-20T12:40:35;101501.69;;;8.56;93.63
79617;BME280;69097;52.132;5.422;2023-12-20T12:43:03;101495.72;;;8.54;93.53
79617;BME280;69097;52.132;5.422;2023-12-20T12:45:30;101488.91;;;8.55;93.53
79617;BME280;69097;52.132;5.422;2023-12-20T12:47:57;101473.31;;;8.58;94.02
79617;BME280;69097;52.132;5.422;2023-12-20T12:50:24;101479.31;;;8.56;94.27
79617;BME280;69097;52.132;5.422;2023-12-20T12:52:51;101470.56;;;8.54;94.35
79617;BME280;69097;52.132;5.422;2023-12-20T12:55:17;101477.31;;;8.53;94.50
79617;BME280;69097;52.132;5.422;2023-12-20T12:57:44;101477.31;;;8.53;94.47
79617;BME280;69097;52.132;5.422;2023-12-20T13:00:12;101476.16;;;8.54;94.78
79617;BME280;69097;52.132;5.422;2023-12-20T13:02:38;101466.94;;;8.54;94.41